Time;durP1;ratioP1;P1;durP2;ratioP2;P2;SDS_P1;SDS_P2;PMS_P1;PMS_P2;Temp;Humidity;BMP_temperature;BMP_pressure;BME280_temperature;BME280_humidity;BME280_pressure;Samples;Min_cycle;Max_cycle;Signal;HPM_P1;HPM_P2
2021/11/24 00:06:09;;;;;;;0.20;0.00;;;10.20;99.90;;;;;;21147729;28;20310;-71
2021/11/24 00:16:14;;;;;;;0.20;0.00;;;10.10;99.90;;;;;;21115389;28;20717;-72
2021/11/24 00:26:18;;;;;;;0.20;0.10;;;10.10;99.90;;;;;;21148811;28;20600;-71
2021/11/24 00:36:23;;;;;;;0.20;0.00;;;10.10;99.90;;;;;;21065919;28;20203;-74
2021/11/24 00:46:26;;;;;;;0.20;0.00;;;9.70;99.90;;;;;;21216553;27;20729;-73
2021/11/24 00:56:32;;;;;;;0.20;0.00;;;9.80;99.90;;;;;;21248319;27;20198;-73
2021/11/24 01:06:35;;;;;;;0.20;0.00;;;9.70;99.90;;;;;;21247907;27;20237;-75
2021/11/24 01:16:42;;;;;;;0.20;0.00;;;9.60;99.90;;;;;;21245940;27;20314;-76
2021/11/24 01:26:46;;;;;;;0.20;0.00;;;9.80;99.90;;;;;;21245551;27;20825;-75
2021/11/24 01:36:50;;;;;;;0.20;0.10;;;10.00;99.90;;;;;;21245919;27;20205;-74
2021/11/24 01:46:56;;;;;;;0.20;0.00;;;10.20;99.90;;;;;;21245401;27;20225;-73
2021/11/24 01:57:01;;;;;;;0.20;0.03;;;10.00;99.90;;;;;;21243768;27;20551;-74
2021/11/24 02:07:06;;;;;;;0.20;0.10;;;10.00;99.90;;;;;;21243125;27;20309;-75
2021/11/24 02:17:11;;;;;;;0.20;0.00;;;9.90;99.90;;;;;;21184361;27;20707;-75
2021/11/24 02:27:16;;;;;;;0.20;0.10;;;9.70;99.90;;;;;;21156003;28;20259;-76
2021/11/24 02:37:20;;;;;;;0.20;0.00;;;9.60;99.90;;;;;;21153718;28;20206;-75
2021/11/24 02:47:25;;;;;;;0.20;0.10;;;9.80;99.90;;;;;;21153217;27;20223;-75
2021/11/24 02:57:33;;;;;;;0.20;0.10;;;9.90;99.90;;;;;;21153869;28;20229;-76
2021/11/24 03:07:38;;;;;;;0.20;0.10;;;10.00;99.90;;;;;;21153530;28;20229;-76
2021/11/24 03:17:42;;;;;;;0.20;0.10;;;10.20;99.90;;;;;;21231206;27;20302;-75
2021/11/24 03:27:47;;;;;;;0.20;0.03;;;10.40;99.90;;;;;;21253241;27;20305;-73
2021/11/24 03:37:52;;;;;;;0.20;0.10;;;10.30;99.90;;;;;;21236876;27;20273;-73
2021/11/24 03:47:58;;;;;;;0.20;0.10;;;10.20;99.90;;;;;;21235825;27;20222;-74
2021/11/24 03:58:02;;;;;;;0.20;0.10;;;10.10;99.90;;;;;;21235059;27;20689;-73
2021/11/24 04:08:07;;;;;;;0.20;0.03;;;9.80;99.90;;;;;;21234894;28;20388;-74
2021/11/24 04:18:11;;;;;;;0.20;0.00;;;9.70;99.90;;;;;;21155784;27;20227;-75
2021/11/24 04:28:15;;;;;;;0.20;0.03;;;9.60;99.90;;;;;;21165335;28;20218;-74
2021/11/24 04:38:19;;;;;;;0.20;0.10;;;9.50;99.90;;;;;;21164839;28;20279;-74
2021/11/24 04:48:24;;;;;;;0.20;0.10;;;9.50;99.90;;;;;;21161654;27;20223;-72
2021/11/24 04:58:28;;;;;;;0.20;0.10;;;9.70;99.90;;;;;;21164102;28;20206;-75
2021/11/24 05:08:34;;;;;;;0.20;0.10;;;9.70;99.90;;;;;;21161759;28;20229;-77
2021/11/24 05:18:42;;;;;;;0.20;0.10;;;9.80;99.90;;;;;;21077981;28;20223;-76
2021/11/24 05:28:47;;;;;;;0.20;0.10;;;9.80;99.90;;;;;;21075038;28;20226;-75
2021/11/24 05:38:50;;;;;;;0.20;0.10;;;9.90;99.90;;;;;;21074076;28;20192;-74
2021/11/24 05:48:56;;;;;;;0.20;0.10;;;10.10;99.90;;;;;;21072265;28;20220;-74
2021/11/24 05:59:00;;;;;;;0.20;0.00;;;10.30;99.90;;;;;;21072894;28;20203;-74
2021/11/24 06:09:06;;;;;;;0.20;0.10;;;10.50;99.90;;;;;;21079031;27;20219;-71
2021/11/24 06:19:09;;;;;;;0.20;0.10;;;11.20;99.90;;;;;;21239692;27;20246;-72
2021/11/24 06:29:14;;;;;;;0.20;0.10;;;11.50;99.90;;;;;;21239793;27;20359;-75
2021/11/24 06:39:17;;;;;;;0.20;0.00;;;11.90;99.90;;;;;;21231900;27;20253;-75
2021/11/24 06:49:23;;;;;;;0.20;0.10;;;12.60;99.90;;;;;;21151811;28;20223;-75
2021/11/24 06:59:26;;;;;;;0.20;0.10;;;12.50;99.90;;;;;;21150759;28;20290;-72
2021/11/24 07:09:31;;;;;;;0.20;0.10;;;12.00;99.90;;;;;;21154812;27;20735;-73
2021/11/24 07:19:35;;;;;;;0.20;0.10;;;11.70;99.90;;;;;;21232976;27;20226;-75
2021/11/24 07:29:45;;;;;;;0.20;0.10;;;11.60;99.90;;;;;;21233672;27;20755;-75
2021/11/24 07:39:48;;;;;;;0.20;0.00;;;11.70;99.90;;;;;;21249701;27;20186;-72
2021/11/24 07:49:53;;;;;;;0.20;0.00;;;11.70;99.90;;;;;;21247751;27;20310;-73
2021/11/24 07:59:57;;;;;;;0.20;0.03;;;11.80;99.90;;;;;;21251785;27;20198;-73
2021/11/24 08:10:03;;;;;;;0.20;0.10;;;11.90;99.90;;;;;;21235027;27;20223;-72
2021/11/24 08:20:12;;;;;;;0.20;0.10;;;12.10;99.90;;;;;;21161000;28;20219;-72
2021/11/24 08:30:17;;;;;;;0.20;0.00;;;12.10;99.90;;;;;;21161702;28;20219;-71
2021/11/24 08:40:25;;;;;;;0.20;0.00;;;12.10;99.90;;;;;;21159568;28;20210;-74
2021/11/24 08:50:30;;;;;;;0.20;0.10;;;12.30;99.90;;;;;;21158523;28;20229;-72
2021/11/24 09:00:34;;;;;;;0.20;0.00;;;12.50;99.90;;;;;;21123771;28;20252;-72
2021/11/24 09:10:42;;;;;;;0.20;0.10;;;12.40;99.90;;;;;;21176180;27;20219;-72
2021/11/24 09:20:50;;;;;;;0.20;0.00;;;12.60;99.90;;;;;;21229870;27;20307;-73
2021/11/24 09:30:55;;;;;;;0.20;0.00;;;12.80;99.90;;;;;;21157238;28;20297;-73
2021/11/24 09:41:04;;;;;;;0.20;0.10;;;13.00;99.90;;;;;;21153998;28;20286;-72
2021/11/24 09:51:10;;;;;;;0.20;0.10;;;13.00;99.90;;;;;;21153154;27;20306;-73
2021/11/24 10:01:13;;;;;;;0.20;0.10;;;13.00;99.90;;;;;;21153143;28;20277;-73
2021/11/24 10:11:19;;;;;;;0.20;0.00;;;13.20;99.90;;;;;;21150120;27;20215;-72
2021/11/24 10:21:23;;;;;;;0.20;0.10;;;13.30;99.90;;;;;;21126151;27;20307;-71
2021/11/24 10:31:32;;;;;;;0.20;0.00;;;13.80;99.90;;;;;;21139656;28;20625;-72
2021/11/24 10:41:39;;;;;;;0.20;0.00;;;14.90;99.90;;;;;;21152304;28;20244;-72
2021/11/24 10:52:15;;;;;;;0.20;0.00;;;14.50;99.90;;;;;;21150576;28;20215;-72
2021/11/24 11:02:25;;;;;;;0.20;0.00;;;14.70;99.90;;;;;;21151764;28;20229;-73
2021/11/24 11:12:33;;;;;;;0.20;0.00;;;15.00;99.90;;;;;;21178050;27;20215;-73
2021/11/24 11:22:37;;;;;;;0.20;0.00;;;14.40;99.90;;;;;;21150120;28;20235;-71
2021/11/24 11:32:42;;;;;;;0.20;0.00;;;14.00;99.90;;;;;;21146978;28;20215;-70
2021/11/24 11:42:49;;;;;;;0.20;0.00;;;14.00;99.90;;;;;;21144706;28;20179;-69
2021/11/24 11:53:19;;;;;;;0.20;0.10;;;14.30;99.90;;;;;;21144703;28;20372;-68
2021/11/24 12:03:56;;;;;;;0.20;0.07;;;14.20;99.90;;;;;;21142923;28;20197;-72
2021/11/24 12:14:22;;;;;;;0.20;0.03;;;14.10;99.90;;;;;;21143404;28;20219;-73
2021/11/24 12:24:38;;;;;;;0.20;0.03;;;14.50;99.90;;;;;;21176833;27;20273;-72
2021/11/24 12:34:51;;;;;;;0.20;0.10;;;14.40;99.90;;;;;;21146277;28;20258;-71
2021/11/24 12:44:55;;;;;;;0.20;0.00;;;14.50;99.90;;;;;;21158763;28;20691;-71
2021/11/24 12:55:08;;;;;;;0.20;0.00;;;14.70;99.90;;;;;;21162662;28;20199;-70
2021/11/24 13:05:11;;;;;;;0.20;0.10;;;14.70;99.90;;;;;;21161134;28;20206;-71
2021/11/24 13:15:18;;;;;;;0.20;0.00;;;14.30;99.90;;;;;;21187292;27;20199;-71
2021/11/24 13:25:38;;;;;;;0.20;0.00;;;14.50;99.90;;;;;;21157465;28;20228;-70
2021/11/24 13:36:07;;;;;;;0.20;0.00;;;14.50;99.90;;;;;;21153302;28;20707;-71
2021/11/24 13:46:14;;;;;;;0.20;0.00;;;15.20;99.90;;;;;;21155526;28;20216;-71
2021/11/24 13:56:23;;;;;;;0.20;0.00;;;15.80;99.90;;;;;;21157271;28;20226;-73
2021/11/24 14:06:49;;;;;;;0.20;0.10;;;15.50;99.90;;;;;;21155525;27;20222;-72
2021/11/24 14:16:59;;;;;;;0.20;0.00;;;16.40;99.90;;;;;;21178948;27;20570;-71
2021/11/24 14:27:04;;;;;;;0.20;0.10;;;14.80;99.90;;;;;;21154410;28;20215;-73
2021/11/24 14:37:09;;;;;;;0.20;0.10;;;14.30;99.90;;;;;;21154351;27;20192;-72
2021/11/24 14:47:13;;;;;;;0.20;0.00;;;14.00;99.90;;;;;;21149644;28;20867;-71
2021/11/24 14:57:20;;;;;;;0.20;0.10;;;13.70;99.90;;;;;;21149238;28;20221;-71
2021/11/24 15:07:23;;;;;;;0.20;0.00;;;13.70;99.90;;;;;;21148287;28;20269;-79
2021/11/24 15:17:29;;;;;;;0.20;0.00;;;13.50;99.90;;;;;;21158650;27;20317;-72
2021/11/24 15:27:33;;;;;;;0.20;0.00;;;13.70;99.90;;;;;;21148667;28;20315;-73
2021/11/24 15:37:48;;;;;;;0.20;0.00;;;13.50;99.90;;;;;;21148804;28;20198;-72
2021/11/24 15:47:52;;;;;;;0.20;0.10;;;13.30;99.90;;;;;;21147915;28;20215;-72
2021/11/24 15:57:57;;;;;;;0.20;0.10;;;13.00;99.90;;;;;;21147804;28;20241;-72
2021/11/24 16:08:01;;;;;;;0.20;0.07;;;13.30;99.90;;;;;;21148487;28;20553;-71
2021/11/24 16:18:07;;;;;;;0.20;0.10;;;13.60;99.90;;;;;;21184888;27;20305;-73
2021/11/24 16:28:11;;;;;;;0.20;0.00;;;13.90;99.90;;;;;;21168196;28;20211;-72
2021/11/24 16:38:16;;;;;;;0.20;0.10;;;13.60;99.90;;;;;;21163774;28;20290;-70
2021/11/24 16:48:20;;;;;;;0.20;0.10;;;13.60;99.90;;;;;;21160638;28;20272;-69
2021/11/24 16:58:25;;;;;;;0.20;0.00;;;13.60;99.90;;;;;;21197577;27;20195;-71
2021/11/24 17:08:29;;;;;;;0.20;0.10;;;13.60;99.90;;;;;;21245584;27;20222;-70
2021/11/24 17:18:34;;;;;;;0.20;0.00;;;13.20;99.90;;;;;;21187068;27;20241;-70
2021/11/24 17:28:40;;;;;;;0.20;0.00;;;13.10;99.90;;;;;;21242353;27;20207;-69
2021/11/24 17:38:46;;;;;;;0.20;0.00;;;13.10;99.90;;;;;;21241424;27;20187;-72
2021/11/24 17:48:50;;;;;;;0.20;0.10;;;13.00;99.90;;;;;;21241884;27;20271;-68
2021/11/24 17:58:58;;;;;;;0.20;0.00;;;12.80;99.90;;;;;;21241629;27;20678;-72
2021/11/24 18:09:02;;;;;;;0.20;0.10;;;13.00;99.90;;;;;;21241092;27;20694;-70
2021/11/24 18:19:08;;;;;;;0.20;0.10;;;12.80;99.90;;;;;;21247781;27;20238;-73
2021/11/24 18:29:11;;;;;;;0.20;0.17;;;12.70;99.90;;;;;;21243377;27;20222;-74
2021/11/24 18:39:17;;;;;;;0.20;0.10;;;12.60;99.90;;;;;;21168131;27;20622;-76
2021/11/24 18:49:21;;;;;;;0.20;0.00;;;12.70;99.90;;;;;;21152525;28;20594;-73
2021/11/24 18:59:27;;;;;;;0.20;0.10;;;12.60;99.90;;;;;;21152522;27;20278;-74
2021/11/24 19:09:31;;;;;;;0.20;0.10;;;12.40;99.90;;;;;;21159684;27;20225;-74
2021/11/24 19:19:37;;;;;;;0.20;0.10;;;12.50;99.90;;;;;;21235270;27;20564;-74
2021/11/24 19:29:42;;;;;;;0.20;0.10;;;12.30;99.90;;;;;;21235618;27;20313;-71
2021/11/24 19:39:47;;;;;;;0.20;0.10;;;11.90;99.90;;;;;;21161382;27;20203;-75
2021/11/24 19:49:50;;;;;;;0.20;0.10;;;11.80;99.90;;;;;;21140473;28;20321;-71
2021/11/24 20:00:11;;;;;;;0.20;0.10;;;11.70;99.90;;;;;;21168958;28;20191;-74
2021/11/24 20:10:18;;;;;;;0.20;0.10;;;11.40;99.90;;;;;;21182550;27;20978;-74
2021/11/24 20:20:24;;;;;;;0.20;0.10;;;11.30;99.90;;;;;;21168117;27;20259;-71
2021/11/24 20:30:29;;;;;;;0.20;0.10;;;11.00;99.90;;;;;;21161325;28;20223;-72
2021/11/24 20:40:35;;;;;;;0.20;0.10;;;10.60;99.90;;;;;;21157690;27;20206;-73
2021/11/24 20:50:38;;;;;;;0.20;0.10;;;10.50;99.90;;;;;;21160323;28;20313;-72
2021/11/24 21:00:44;;;;;;;0.20;0.10;;;10.50;99.90;;;;;;21160840;28;20283;-72
2021/11/24 21:10:48;;;;;;;0.20;0.10;;;10.40;99.90;;;;;;21180247;27;20709;-70
2021/11/24 21:20:53;;;;;;;0.20;0.10;;;10.40;99.90;;;;;;21200064;27;20227;-71
2021/11/24 21:30:57;;;;;;;0.20;0.00;;;10.50;99.90;;;;;;21159880;27;20231;-76
2021/11/24 21:41:02;;;;;;;0.20;0.10;;;10.40;99.90;;;;;;21173454;27;20286;-75
2021/11/24 21:51:06;;;;;;;0.20;0.10;;;10.40;99.90;;;;;;21158206;27;20311;-75
2021/11/24 22:01:11;;;;;;;0.20;0.10;;;10.70;99.90;;;;;;21156613;28;20554;-75
2021/11/24 22:11:35;;;;;;;0.20;0.10;;;11.10;99.90;;;;;;21150543;27;20223;-74
2021/11/24 22:32:09;;;;;;;0.20;0.10;;;10.40;99.90;;;;;;21141617;28;20314;-74
2021/11/24 22:42:20;;;;;;;0.20;0.10;;;10.20;99.90;;;;;;21155151;28;20191;-73
2021/11/24 22:52:24;;;;;;;0.20;0.00;;;10.20;99.90;;;;;;21149970;28;20306;-74
2021/11/24 23:02:30;;;;;;;0.20;0.07;;;9.70;99.90;;;;;;21161337;27;20231;-73
2021/11/24 23:12:34;;;;;;;0.20;0.10;;;9.50;99.90;;;;;;21187196;27;20229;-74
2021/11/24 23:22:39;;;;;;;0.20;0.10;;;9.40;99.90;;;;;;21238251;27;20222;-73
2021/11/24 23:32:43;;;;;;;0.20;0.10;;;9.50;99.90;;;;;;21150798;27;20216;-74
2021/11/24 23:42:48;;;;;;;0.20;0.10;;;9.20;99.90;;;;;;21149306;28;20282;-72
2021/11/24 23:52:52;;;;;;;0.20;0.10;;;9.10;99.90;;;;;;21159407;28;20219;-73
